Aviation Digital Data Service (ADDS)

Output produced by METARs form (1653 UTC 23 September 2020)
found at http://aviationweather.gov/metar/data/
 
KMCB 231647Z AUTO 10007KT 10SM -RA BKN009 BKN029 OVC055 23/22 A2990 RMK AO2 P0001
KMCB 231641Z AUTO 11007KT 7SM -RA SCT009 BKN031 OVC060 23/22 A2990 RMK AO2 P0001 T02280217
KMCB 231603Z AUTO 12008KT 10SM -RA SCT007 BKN028 OVC075 22/21 A2992 RMK AO2 P0000 T02220211
KMCB 231535Z 2316/2412 12009KT P6SM VCSH BKN010 
     TEMPO 2316/2317 11006KT 2SM +RA BKN010 
     FM232100 12009KT 5SM -SHRA BR VCTS BKN020CB 
     FM240000 11007KT 5SM SHRA BR OVC010 
     FM240400 14010KT 3SM SHRA BR OVC003